createdAt,value
2023-04-19T00:01:01.717Z,44.95
2023-04-19T00:03:30.986Z,41.38
2023-04-19T00:06:03.640Z,45.00
2023-04-19T00:08:30.628Z,43.00
2023-04-19T00:10:57.571Z,40.47
2023-04-19T00:13:24.889Z,41.55
2023-04-19T00:15:51.721Z,42.00
2023-04-19T00:18:19.576Z,42.47
2023-04-19T00:20:49.512Z,41.67
2023-04-19T00:23:19.840Z,41.17
2023-04-19T00:25:48.548Z,42.83
2023-04-19T00:28:15.780Z,40.30
2023-04-19T00:30:43.536Z,41.47
2023-04-19T00:33:15.190Z,42.38
2023-04-19T00:35:42.513Z,42.30
2023-04-19T00:38:11.643Z,39.50
2023-04-19T00:40:39.745Z,43.55
2023-04-19T00:43:06.635Z,44.08
2023-04-19T00:45:35.802Z,40.90
2023-04-19T00:48:06.645Z,43.72
2023-04-19T00:50:36.095Z,40.83
2023-04-19T00:53:04.537Z,39.55
2023-04-19T00:55:32.157Z,40.38
2023-04-19T00:58:00.164Z,41.53
2023-04-19T01:00:29.202Z,44.20
2023-04-19T01:02:58.565Z,42.30
2023-04-19T01:05:25.683Z,43.53
2023-04-19T01:07:52.627Z,43.63
2023-04-19T01:10:19.491Z,42.33
2023-04-19T01:12:46.353Z,45.47
2023-04-19T01:15:13.350Z,40.95
2023-04-19T01:17:41.152Z,42.33
2023-04-19T01:20:08.662Z,42.67
2023-04-19T01:22:38.101Z,44.38
2023-04-19T01:25:05.695Z,44.50
2023-04-19T01:27:32.747Z,45.25
2023-04-19T01:30:02.723Z,46.30
2023-04-19T01:32:29.633Z,44.00
2023-04-19T01:34:57.676Z,44.00
2023-04-19T01:37:26.626Z,44.40
2023-04-19T01:39:56.681Z,45.95
2023-04-19T01:42:23.609Z,44.55
2023-04-19T01:44:50.583Z,44.22
2023-04-19T01:47:18.489Z,44.25
2023-04-19T01:49:45.487Z,45.38
2023-04-19T01:52:13.378Z,46.97
2023-04-19T01:54:54.409Z,45.38
2023-04-19T01:57:25.899Z,45.35
2023-04-19T01:59:56.821Z,43.90
2023-04-19T02:02:46.512Z,47.92
2023-04-19T02:05:37.694Z,42.80
2023-04-19T02:08:09.053Z,47.47
2023-04-19T02:10:36.213Z,42.40
2023-04-19T02:13:03.204Z,46.63
2023-04-19T02:15:32.023Z,42.80
2023-04-19T02:18:00.406Z,40.30
2023-04-19T02:20:29.964Z,40.70
2023-04-19T02:22:57.299Z,42.10
2023-04-19T02:25:24.591Z,41.30
2023-04-19T02:27:52.177Z,42.78
2023-04-19T02:30:22.992Z,40.35
2023-04-19T02:32:51.843Z,42.58
2023-04-19T02:35:18.835Z,41.17
2023-04-19T02:37:45.839Z,41.22
2023-04-19T02:40:16.586Z,40.45
2023-04-19T02:42:43.805Z,41.92
2023-04-19T02:45:11.041Z,41.97
2023-04-19T02:47:38.009Z,41.08
2023-04-19T02:50:06.133Z,43.58
2023-04-19T02:52:36.560Z,40.17
2023-04-19T02:55:05.192Z,41.30
2023-04-19T02:57:32.268Z,40.58
2023-04-19T02:59:59.244Z,37.53
2023-04-19T03:02:27.499Z,38.40
2023-04-19T03:04:55.867Z,40.47
2023-04-19T03:07:24.280Z,42.17
2023-04-19T03:09:51.124Z,39.95
2023-04-19T03:12:20.930Z,36.35
2023-04-19T03:14:56.982Z,40.22
2023-04-19T03:17:25.425Z,38.25
2023-04-19T03:19:53.937Z,34.72
2023-04-19T03:22:21.700Z,37.22
2023-04-19T03:24:50.112Z,38.85
2023-04-19T03:27:22.160Z,35.15
2023-04-19T03:30:01.111Z,36.05
2023-04-19T03:32:32.172Z,39.15
2023-04-19T03:34:59.522Z,36.20
2023-04-19T03:37:28.348Z,36.90
2023-04-19T03:40:22.344Z,37.00
2023-04-19T03:42:50.953Z,36.03
2023-04-19T03:45:25.583Z,37.92
2023-04-19T03:47:52.721Z,37.10
2023-04-19T03:50:20.463Z,37.53
2023-04-19T03:52:51.218Z,36.38
2023-04-19T03:55:19.633Z,39.42
2023-04-19T03:57:46.813Z,38.53
2023-04-19T04:00:22.167Z,38.63
2023-04-19T04:02:57.418Z,35.08
2023-04-19T04:05:26.997Z,37.63
2023-04-19T04:08:03.738Z,38.42
2023-04-19T04:10:33.719Z,39.22
2023-04-19T04:22:12.026Z,40.58
2023-04-19T04:24:43.309Z,42.22
2023-04-19T04:27:33.948Z,41.92
2023-04-19T04:30:02.089Z,40.15
2023-04-19T04:32:37.282Z,40.20
2023-04-19T04:35:07.924Z,41.88
2023-04-19T04:37:49.900Z,36.72
2023-04-19T04:40:19.026Z,39.38
2023-04-19T04:42:47.278Z,42.22
2023-04-19T04:45:18.133Z,39.92
2023-04-19T04:47:46.496Z,39.58
2023-04-19T04:50:20.533Z,41.58
2023-04-19T04:52:58.147Z,41.25
2023-04-19T04:55:29.348Z,40.10
2023-04-19T04:57:59.099Z,41.70
2023-04-19T05:01:05.390Z,44.22
2023-04-19T05:03:38.458Z,41.33
2023-04-19T05:06:13.385Z,46.60
2023-04-19T05:08:41.760Z,45.67
2023-04-19T05:11:19.034Z,45.42
2023-04-19T05:13:52.884Z,43.00
2023-04-19T05:16:20.441Z,45.30
2023-04-19T05:19:14.684Z,43.67
2023-04-19T05:21:51.706Z,44.17
2023-04-19T05:24:21.960Z,43.67
2023-04-19T05:26:50.742Z,53.78
2023-04-19T05:29:18.375Z,50.92
2023-04-19T05:31:54.914Z,48.33
2023-04-19T05:34:26.503Z,44.72
2023-04-19T05:36:56.183Z,43.80
2023-04-19T05:39:23.013Z,42.20
2023-04-19T05:41:51.388Z,48.78
2023-04-19T05:44:19.571Z,44.00
2023-04-19T05:46:46.676Z,47.67
2023-04-19T05:49:18.463Z,46.72
2023-04-19T05:52:00.481Z,47.38
2023-04-19T05:54:45.223Z,44.75
2023-04-19T05:57:12.371Z,43.30
2023-04-19T05:59:39.479Z,50.08
2023-04-19T06:02:07.562Z,43.60
2023-04-19T06:04:36.399Z,44.70
2023-04-19T06:07:06.109Z,43.78
2023-04-19T06:09:34.988Z,45.55
2023-04-19T06:12:03.439Z,46.55
2023-04-19T06:14:32.357Z,41.40
2023-04-19T06:17:03.754Z,45.78
2023-04-19T06:19:35.751Z,40.03
2023-04-19T06:22:04.551Z,48.22
2023-04-19T06:24:36.127Z,42.20
2023-04-19T06:27:04.201Z,46.20
2023-04-19T06:29:31.997Z,43.22
2023-04-19T06:32:02.091Z,42.03
2023-04-19T06:34:35.220Z,49.25
2023-04-19T06:37:05.564Z,38.95
2023-04-19T06:39:38.560Z,42.67
2023-04-19T06:42:08.276Z,41.35
2023-04-19T06:44:36.068Z,45.50
2023-04-19T06:47:03.983Z,42.30
2023-04-19T06:49:31.401Z,44.10
2023-04-19T06:51:59.878Z,39.75
2023-04-19T06:54:26.813Z,36.67
2023-04-19T06:56:53.719Z,38.75
2023-04-19T06:59:22.769Z,41.55
2023-04-19T07:01:53.959Z,37.42
2023-04-19T07:04:22.205Z,33.50
2023-04-19T07:06:49.960Z,34.85
2023-04-19T07:09:17.218Z,43.25
2023-04-19T07:11:44.004Z,31.65
2023-04-19T07:14:11.654Z,33.85
2023-04-19T07:16:39.480Z,34.15
2023-04-19T07:19:06.299Z,30.42
2023-04-19T07:21:35.092Z,31.17
2023-04-19T07:24:02.499Z,31.52
2023-04-19T07:26:31.404Z,35.45
2023-04-19T07:28:58.588Z,27.92
2023-04-19T07:31:29.221Z,32.85
2023-04-19T07:33:58.080Z,31.40
2023-04-19T07:36:28.557Z,31.67
2023-04-19T07:38:57.997Z,31.17
2023-04-19T07:41:24.866Z,26.95
2023-04-19T07:43:51.961Z,27.50
2023-04-19T07:46:18.960Z,31.80
2023-04-19T07:48:46.464Z,27.60
2023-04-19T07:51:16.774Z,31.52
2023-04-19T07:53:51.152Z,36.70
2023-04-19T07:56:20.174Z,31.67
2023-04-19T07:58:56.556Z,32.45
2023-04-19T08:01:32.881Z,25.90
2023-04-19T08:04:00.018Z,27.25
2023-04-19T08:06:27.112Z,28.17
2023-04-19T08:08:55.003Z,34.67
2023-04-19T08:11:22.223Z,31.30
2023-04-19T08:14:02.891Z,32.17
2023-04-19T08:19:05.794Z,26.63
2023-04-19T08:21:40.795Z,26.58
2023-04-19T08:24:10.991Z,24.75
2023-04-19T08:26:39.171Z,25.83
2023-04-19T08:29:07.525Z,25.67
2023-04-19T08:31:35.761Z,23.63
2023-04-19T08:34:07.138Z,22.85
2023-04-19T08:36:41.008Z,27.63
2023-04-19T08:39:24.698Z,27.92
2023-04-19T08:42:13.482Z,28.92
2023-04-19T08:48:01.191Z,25.55
2023-04-19T08:50:38.830Z,216.45
2023-04-19T08:53:24.879Z,24.30
2023-04-19T09:01:51.082Z,29.00
2023-04-19T09:04:35.828Z,24.50
2023-04-19T09:07:03.590Z,23.08
2023-04-19T09:12:03.081Z,24.75
2023-04-19T09:14:30.563Z,21.92
2023-04-19T09:17:17.309Z,23.33
2023-04-19T09:19:49.365Z,27.27
2023-04-19T09:22:16.615Z,20.48
2023-04-19T09:27:15.069Z,21.02
2023-04-19T09:29:42.276Z,21.65
2023-04-19T09:32:11.156Z,18.90
2023-04-19T09:35:00.444Z,18.98
2023-04-19T09:39:57.553Z,18.20
2023-04-19T09:42:45.338Z,21.60
2023-04-19T09:48:09.711Z,18.65
2023-04-19T09:50:58.308Z,22.02
2023-04-19T09:53:30.743Z,18.20
2023-04-19T09:56:02.099Z,20.05
2023-04-19T10:01:16.585Z,22.20
2023-04-19T10:03:49.344Z,17.25
2023-04-19T10:11:51.296Z,19.05
2023-04-19T10:14:27.903Z,16.95
2023-04-19T10:16:56.865Z,19.33
2023-04-19T10:19:25.086Z,18.73
2023-04-19T10:21:52.229Z,18.33
2023-04-19T10:24:23.237Z,13.55
2023-04-19T10:27:11.481Z,17.92
2023-04-19T10:29:55.251Z,14.23
2023-04-19T10:32:24.800Z,15.27
2023-04-19T10:34:55.071Z,16.92
2023-04-19T10:37:24.926Z,13.65
2023-04-19T10:39:52.336Z,13.48
2023-04-19T10:42:19.373Z,12.73
2023-04-19T10:45:23.822Z,13.70
2023-04-19T10:47:52.520Z,13.18
2023-04-19T10:50:24.184Z,12.57
2023-04-19T10:52:51.016Z,11.03
2023-04-19T10:55:20.862Z,15.80
2023-04-19T10:58:07.493Z,13.52
2023-04-19T11:00:36.200Z,14.00
2023-04-19T11:03:50.617Z,15.45
2023-04-19T11:06:21.468Z,15.95
2023-04-19T11:08:51.601Z,16.25
2023-04-19T11:11:19.569Z,14.30
2023-04-19T11:13:48.567Z,13.40
2023-04-19T11:16:17.707Z,15.90
2023-04-19T11:18:46.151Z,13.35
2023-04-19T11:21:17.128Z,19.35
2023-04-19T11:23:44.301Z,12.68
2023-04-19T11:26:12.724Z,13.07
2023-04-19T11:28:39.869Z,15.05
2023-04-19T11:31:07.504Z,15.60
2023-04-19T11:33:37.312Z,15.95
2023-04-19T11:36:54.892Z,24.50
2023-04-19T11:39:23.937Z,13.80
2023-04-19T11:41:52.913Z,14.63
2023-04-19T11:44:20.675Z,15.30
2023-04-19T11:47:07.616Z,17.40
2023-04-19T11:49:51.739Z,14.20
2023-04-19T11:52:24.868Z,14.93
2023-04-19T11:54:53.739Z,14.35
2023-04-19T11:57:53.263Z,18.35
2023-04-19T12:00:46.946Z,14.77
2023-04-19T12:03:15.967Z,19.13
2023-04-19T12:06:00.110Z,15.38
2023-04-19T12:08:57.105Z,13.43
2023-04-19T12:11:46.360Z,15.65
2023-04-19T12:14:16.683Z,13.93
2023-04-19T12:16:46.694Z,15.20
2023-04-19T12:19:20.739Z,15.75
2023-04-19T12:21:49.038Z,12.63
2023-04-19T12:24:19.077Z,16.55
2023-04-19T12:26:58.969Z,15.32
2023-04-19T12:29:28.596Z,11.55
2023-04-19T12:31:59.513Z,13.85
2023-04-19T12:34:32.547Z,15.25
2023-04-19T12:36:59.490Z,14.32
2023-04-19T12:39:28.693Z,11.07
2023-04-19T12:42:25.824Z,11.18
2023-04-19T12:45:29.141Z,15.98
2023-04-19T12:47:59.168Z,13.30
2023-04-19T12:50:29.315Z,13.57
2023-04-19T12:52:56.513Z,9.73
2023-04-19T12:55:25.959Z,18.40
2023-04-19T12:57:54.892Z,13.30
2023-04-19T13:00:23.085Z,11.80
2023-04-19T13:02:54.222Z,14.45
2023-04-19T13:05:21.395Z,14.95
2023-04-19T13:07:48.672Z,17.27
2023-04-19T13:10:18.209Z,15.55
2023-04-19T13:12:46.195Z,11.15
2023-04-19T13:17:59.401Z,17.83
2023-04-19T13:20:27.464Z,16.55
2023-04-19T13:22:59.624Z,11.63
2023-04-19T13:25:30.340Z,9.13
2023-04-19T13:27:58.208Z,15.48
2023-04-19T13:30:25.614Z,7.88
2023-04-19T13:32:57.874Z,7.30
2023-04-19T13:35:26.161Z,11.68
2023-04-19T13:37:54.205Z,12.07
2023-04-19T13:40:24.637Z,10.25
2023-04-19T13:42:54.314Z,15.98
2023-04-19T13:45:21.392Z,11.10
2023-04-19T13:47:48.796Z,10.18
2023-04-19T13:50:15.713Z,9.38
2023-04-19T13:52:42.712Z,10.80
2023-04-19T13:55:11.118Z,12.15
2023-04-19T14:00:25.771Z,14.63
2023-04-19T14:02:56.336Z,8.75
2023-04-19T14:05:23.437Z,10.02
2023-04-19T14:07:56.184Z,8.45
2023-04-19T14:10:26.225Z,14.60
2023-04-19T14:12:53.381Z,7.20
2023-04-19T14:15:25.571Z,8.48
2023-04-19T14:17:56.324Z,9.05
2023-04-19T14:20:24.996Z,8.00
2023-04-19T14:22:56.221Z,17.50
2023-04-19T14:25:26.788Z,8.52
2023-04-19T14:27:55.645Z,8.55
2023-04-19T14:30:25.993Z,7.47
2023-04-19T14:32:54.712Z,11.82
2023-04-19T14:35:21.940Z,17.15
2023-04-19T14:37:50.075Z,6.25
2023-04-19T14:40:20.691Z,8.73
2023-04-19T14:45:34.798Z,5.13
2023-04-19T14:48:02.705Z,6.72
2023-04-19T14:50:30.910Z,12.52
2023-04-19T14:52:57.798Z,7.53
2023-04-19T14:55:28.036Z,15.60
2023-04-19T14:57:55.101Z,5.65
2023-04-19T15:00:23.259Z,7.65
2023-04-19T15:02:54.066Z,7.82
2023-04-19T15:05:23.984Z,6.63
2023-04-19T15:07:51.050Z,10.20
2023-04-19T15:10:18.686Z,4.32
2023-04-19T15:12:48.937Z,10.57
2023-04-19T15:15:24.442Z,8.35
2023-04-19T15:18:20.051Z,9.38
2023-04-19T15:20:48.981Z,8.48
2023-04-19T15:23:36.739Z,9.68
2023-04-19T15:28:35.322Z,4.38
2023-04-19T15:31:04.249Z,7.70
2023-04-19T15:33:31.400Z,10.38
2023-04-19T15:35:59.056Z,5.90
2023-04-19T15:38:27.975Z,5.75
2023-04-19T15:40:56.539Z,4.72
2023-04-19T15:43:25.919Z,5.32
2023-04-19T15:45:53.058Z,6.50
2023-04-19T15:48:23.856Z,9.32
2023-04-19T15:51:16.788Z,11.38
2023-04-19T15:56:14.027Z,15.27
2023-04-19T15:58:43.056Z,7.53
2023-04-19T16:01:16.292Z,6.25
2023-04-19T16:03:45.416Z,7.50
2023-04-19T16:06:15.316Z,6.80
2023-04-19T16:08:48.043Z,7.43
2023-04-19T16:11:20.079Z,12.70
2023-04-19T16:13:53.890Z,7.45
2023-04-19T16:16:22.908Z,8.27
2023-04-19T16:18:53.546Z,7.03
2023-04-19T16:21:20.546Z,9.15
2023-04-19T16:23:52.816Z,7.03
2023-04-19T16:26:19.886Z,7.95
2023-04-19T16:28:47.337Z,8.45
2023-04-19T16:31:15.692Z,12.63
2023-04-19T16:33:42.655Z,6.75
2023-04-19T16:36:14.420Z,6.05
2023-04-19T16:41:12.889Z,8.00
2023-04-19T16:43:39.814Z,4.60
2023-04-19T16:46:07.580Z,8.10
2023-04-19T16:48:34.668Z,16.10
2023-04-19T16:51:02.708Z,6.72
2023-04-19T16:53:31.490Z,11.15
2023-04-19T16:56:00.251Z,7.68
2023-04-19T17:01:10.167Z,10.88
2023-04-19T17:03:41.077Z,7.63
2023-04-19T17:06:09.435Z,10.50
2023-04-19T17:08:40.420Z,7.82
2023-04-19T17:11:10.068Z,6.50
2023-04-19T17:13:41.181Z,10.63
2023-04-19T17:16:15.925Z,8.18
2023-04-19T17:21:25.983Z,7.78
2023-04-19T17:23:53.912Z,7.60
2023-04-19T17:26:28.091Z,8.02
2023-04-19T17:29:03.321Z,6.93
2023-04-19T17:31:37.973Z,6.88
2023-04-19T17:34:12.085Z,6.63
2023-04-19T17:37:44.687Z,9.73
2023-04-19T17:40:12.923Z,8.10
2023-04-19T17:42:45.076Z,8.70
2023-04-19T17:45:14.448Z,9.18
2023-04-19T17:47:44.387Z,8.55
2023-04-19T17:50:13.790Z,8.95
2023-04-19T17:52:40.842Z,50.25
2023-04-19T17:55:09.133Z,17.98
2023-04-19T17:57:40.154Z,12.68
2023-04-19T18:00:10.694Z,14.05
2023-04-19T18:02:37.947Z,8.23
2023-04-19T18:05:09.053Z,11.23
2023-04-19T18:07:40.024Z,12.98
2023-04-19T18:10:12.856Z,9.57
2023-04-19T18:12:45.632Z,11.88
2023-04-19T18:15:14.794Z,9.55
2023-04-19T18:17:41.888Z,13.18
2023-04-19T18:20:16.092Z,8.80
2023-04-19T18:22:47.695Z,8.73
2023-04-19T18:25:14.895Z,9.35
2023-04-19T18:27:43.024Z,10.80
2023-04-19T18:30:11.804Z,9.90
2023-04-19T18:32:39.356Z,9.32
2023-04-19T18:35:10.343Z,11.45
2023-04-19T18:37:39.152Z,14.48
2023-04-19T18:40:10.198Z,8.90
2023-04-19T18:42:37.518Z,11.18
2023-04-19T18:45:04.936Z,12.32
2023-04-19T18:47:33.911Z,10.75
2023-04-19T18:50:05.185Z,11.18
2023-04-19T18:52:36.782Z,10.48
2023-04-19T18:55:06.325Z,9.68
2023-04-19T18:57:35.472Z,11.25
2023-04-19T19:00:05.663Z,8.60
2023-04-19T19:02:34.959Z,9.02
2023-04-19T19:05:02.669Z,11.43
2023-04-19T19:07:36.826Z,10.18
2023-04-19T19:10:18.199Z,12.77
2023-04-19T19:12:48.214Z,14.80
2023-04-19T19:15:17.926Z,13.82
2023-04-19T19:17:49.263Z,10.32
2023-04-19T19:20:21.140Z,10.88
2023-04-19T19:22:48.862Z,8.50
2023-04-19T19:25:16.762Z,12.23
2023-04-19T19:28:04.912Z,8.55
2023-04-19T19:30:34.599Z,8.43
2023-04-19T19:33:04.587Z,10.70
2023-04-19T19:35:31.878Z,11.68
2023-04-19T19:38:00.078Z,11.55
2023-04-19T19:40:31.170Z,8.98
2023-04-19T19:43:00.145Z,10.13
2023-04-19T19:45:29.110Z,10.63
2023-04-19T19:48:01.139Z,8.43
2023-04-19T19:51:01.006Z,10.13
2023-04-19T19:53:22.136Z,12.20
2023-04-19T19:55:49.198Z,7.60
2023-04-19T19:58:42.968Z,13.85
2023-04-19T20:01:06.301Z,8.93
2023-04-19T20:03:37.787Z,13.32
2023-04-19T20:07:03.027Z,11.75
2023-04-19T20:09:03.590Z,8.43
2023-04-19T20:11:31.987Z,8.18
2023-04-19T20:13:58.972Z,10.00
2023-04-19T20:16:26.439Z,10.32
2023-04-19T20:18:54.822Z,8.65
2023-04-19T20:21:23.513Z,9.68
2023-04-19T20:23:52.917Z,9.57
2023-04-19T20:26:19.987Z,14.70
2023-04-19T20:28:50.356Z,6.28
2023-04-19T20:31:22.649Z,9.52
2023-04-19T20:33:53.492Z,8.23
2023-04-19T20:36:24.866Z,6.93
2023-04-19T20:38:53.006Z,9.18
2023-04-19T20:41:22.995Z,7.30
2023-04-19T20:43:50.125Z,9.43
2023-04-19T20:46:17.100Z,13.57
2023-04-19T20:48:44.136Z,9.07
2023-04-19T20:51:12.680Z,6.35
2023-04-19T20:53:39.663Z,8.98
2023-04-19T20:56:06.614Z,6.72
2023-04-19T20:58:35.063Z,8.27
2023-04-19T21:01:02.013Z,6.93
2023-04-19T21:03:29.068Z,6.50
2023-04-19T21:05:56.124Z,8.20
2023-04-19T21:08:24.206Z,11.55
2023-04-19T21:10:54.297Z,5.00
2023-04-19T21:13:21.231Z,7.28
2023-04-19T21:15:48.069Z,5.57
2023-04-19T21:18:15.029Z,8.77
2023-04-19T21:20:43.173Z,7.93
2023-04-19T21:23:10.116Z,6.18
2023-04-19T21:25:37.349Z,6.07
2023-04-19T21:28:04.388Z,8.32
2023-04-19T21:30:31.605Z,5.30
2023-04-19T21:32:58.729Z,5.18
2023-04-19T21:35:26.104Z,12.30
2023-04-19T21:37:53.493Z,5.32
2023-04-19T21:40:20.484Z,10.95
2023-04-19T21:42:47.344Z,14.90
2023-04-19T21:45:14.274Z,8.90
2023-04-19T21:47:41.342Z,9.38
2023-04-19T21:50:08.977Z,5.18
2023-04-19T21:52:38.428Z,8.68
2023-04-19T21:55:07.040Z,8.77
2023-04-19T21:57:37.603Z,8.35
2023-04-19T22:00:09.263Z,8.57
2023-04-19T22:02:42.122Z,6.30
2023-04-19T22:05:09.345Z,9.05
2023-04-19T22:07:40.179Z,7.03
2023-04-19T22:10:08.862Z,8.73
2023-04-19T22:12:48.298Z,7.10
2023-04-19T22:16:15.288Z,6.07
2023-04-19T22:18:43.495Z,7.72
2023-04-19T22:21:12.927Z,7.63
2023-04-19T22:23:39.832Z,10.43
2023-04-19T22:26:06.708Z,7.10
2023-04-19T22:28:39.140Z,11.00
2023-04-19T22:31:07.198Z,7.13
2023-04-19T22:33:35.195Z,8.52
2023-04-19T22:36:04.043Z,7.72
2023-04-19T22:38:32.128Z,12.80
2023-04-19T22:41:00.068Z,5.00
2023-04-19T22:43:28.162Z,8.75
2023-04-19T22:45:55.089Z,10.68
2023-04-19T22:48:21.998Z,8.75
2023-04-19T22:50:50.313Z,9.45
2023-04-19T22:53:17.223Z,6.53
2023-04-19T22:55:46.436Z,10.18
2023-04-19T22:58:14.756Z,12.73
2023-04-19T23:00:41.624Z,7.18
2023-04-19T23:03:10.578Z,8.65
2023-04-19T23:05:39.352Z,8.18
2023-04-19T23:08:07.163Z,8.05
2023-04-19T23:10:38.107Z,9.27
2023-04-19T23:13:05.930Z,10.48
2023-04-19T23:15:37.712Z,9.55
2023-04-19T23:18:04.952Z,6.90
2023-04-19T23:20:32.116Z,8.57
2023-04-19T23:22:59.614Z,9.40
2023-04-19T23:25:32.702Z,7.25
2023-04-19T23:28:30.098Z,10.63
2023-04-19T23:30:57.126Z,7.85
2023-04-19T23:33:24.094Z,12.30
2023-04-19T23:35:52.175Z,8.25
2023-04-19T23:38:19.251Z,7.72
2023-04-19T23:40:46.457Z,9.30
2023-04-19T23:43:14.475Z,7.85
2023-04-19T23:45:42.458Z,7.03
2023-04-19T23:48:10.406Z,7.05
2023-04-19T23:50:37.454Z,7.05
2023-04-19T23:53:05.486Z,11.43
2023-04-19T23:55:32.564Z,10.57
2023-04-19T23:57:59.585Z,9.55
